Terminal Aerodrome Forecast
Issued by NWS Central Illinois

Home | Current Version | Previous Version | Text Only | Print | Product List | Glossary On
Versions: 1 2 3 4 5 6 7 8 9 10 11 12 13 14 15 16 17 18 19 20 21 22 23 24 25 26 27 28 29 30 31 32 33 34 35
000
FTUS43 KILX 200649 AAJ
TAFPIA
TAF AMD
KPIA 200649Z 2007/2106 03005KT P6SM OVC035
     FM200900 04008KT P6SM FEW010 OVC025
     FM201300 08008KT P6SM BKN040
     FM201900 12010KT P6SM BKN030
     FM202300 14012KT 6SM -RA BR SCT007 BKN012
     FM210400 24011KT P6SM VCSH BKN022=

USA.gov is the U.S. government's official web portal to all federal, state and local government web resources and services.